Latest Weather Observations for Point Stuart

IDD60801

Issued at 1:31 pm CST Friday 29 April 2016 (issued every 30 minutes, with the page automatically refreshed every 10 minutes)

About weather observations | Map of weather stations | Latest weather observations for NT | Other Formats
Station Details ID: 014254 Name: POINT STUART Lat: -12.24 Lon: 131.88 Height: 1.0 m
Data from the previous 72 hours. | See also: Recent months at Point Stuart
Date/Time
CST
Temp
°C
App
Temp
°C
Dew
Point
Rel
Hum
%
Delta-T
°C
Wind Press
QNH
hPa
Press
MSL
hPa
Rain
since 9 am
mm
Dir
 
Spd
km/h
Gust
km/h
Spd
kts
Gust
kts
29/01:30pm 30.2 37.3 27.6 86 1.9 ENE 6 13 3 7 1010.1 - 1.4
29/01:00pm 29.6 37.8 28.2 92 1.0 SSE 2 7 1 4 1010.7 - 1.2
29/12:30pm 29.1 36.5 28.4 96 0.5 SSE 7 11 4 6 1011.2 - 1.2
29/12:00pm 28.5 35.8 28.2 98 0.2 S 7 13 4 7 1011.9 1011.9 1.2
29/11:30am 28.0 35.3 28.0 100 0.0 SSE 6 9 3 5 1012.4 - 1.2
29/11:00am 27.7 34.6 27.7 100 0.0 ESE 7 11 4 6 1012.9 - 1.2
29/10:30am 27.2 33.8 27.2 100 0.0 ESE 7 11 4 6 1013.0 - 1.2
29/10:00am 26.6 33.7 26.6 100 0.0 SSW 2 7 1 4 1013.1 - 1.2
29/09:30am 25.7 31.3 25.7 100 0.0 W 7 9 4 5 1013.1 - 1.2
29/09:00am 24.9 30.0 24.9 100 0.0 NW 7 11 4 6 1013.1 1013.1 15.2
29/08:30am 24.8 27.1 24.5 98 0.2 NNE 20 32 11 17 1012.9 - 10.6
29/08:00am 25.8 30.9 25.6 99 0.1 ESE 9 19 5 10 1012.4 - 8.2
29/07:30am 25.2 28.7 24.9 98 0.2 SE 15 19 8 10 1011.8 - 0.0
29/07:00am 25.1 29.6 24.6 97 0.3 ESE 9 13 5 7 1011.5 - 0.0
29/06:30am 25.0 29.6 24.1 95 0.6 S 7 9 4 5 1011.1 - 0.0
29/06:00am 25.1 29.0 24.2 95 0.6 S 11 13 6 7 1010.8 1010.8 0.0
29/05:30am 25.4 29.4 24.4 94 0.7 S 11 13 6 7 1010.7 - 0.0
29/05:00am 25.5 29.4 24.3 93 0.8 S 11 13 6 7 1010.5 - 0.0
29/04:30am 25.5 29.6 23.9 91 1.1 S 9 11 5 6 1010.4 - 0.0
29/04:00am 25.6 30.0 23.8 90 1.2 S 7 9 4 5 1010.3 - 0.0
29/03:30am 25.7 30.0 23.6 88 1.4 SSW 7 11 4 6 1010.3 - 0.0
29/03:00am 26.0 30.3 23.7 87 1.6 S 7 9 4 5 1010.3 1010.3 0.0
29/02:30am 26.3 31.7 23.8 86 1.7 N 2 9 1 5 1010.5 - 0.0
29/02:00am 26.7 32.5 24.0 85 1.9 CALM 0 0 0 0 1010.7 - 0.0
29/01:30am 26.6 32.2 23.5 83 2.1 CALM 0 0 0 0 1010.9 - 0.0
29/01:00am 26.8 31.2 23.5 82 2.3 N 6 7 3 4 1011.0 - 0.0
29/12:30am 27.3 32.6 23.7 81 2.5 N 2 6 1 3 1011.2 - 0.0
29/12:00am 27.6 33.3 23.8 80 2.6 CALM 0 0 0 0 1011.3 1011.3 0.0
 
Date/Time
CST
Temp
°C
App
Temp
°C
Dew
Point
Rel
Hum
%
Delta-T
°C
Wind Press
QNH
hPa
Press
MSL
hPa
Rain
since 9 am
mm
Dir
 
Spd
km/h
Gust
km/h
Spd
kts
Gust
kts
28/11:30pm 28.0 32.7 24.0 79 2.8 N 6 7 3 4 1011.5 - 0.0
28/11:00pm 28.3 33.4 24.1 78 2.9 NNW 4 9 2 5 1011.6 - 0.0
28/10:30pm 28.8 34.5 24.4 77 3.1 N 2 7 1 4 1011.6 - 0.0
28/10:00pm 29.0 33.9 24.3 76 3.3 N 6 9 3 5 1011.5 - 0.0
28/09:30pm 28.9 33.4 24.0 75 3.4 NNW 7 11 4 6 1011.4 - 0.0
28/09:00pm 29.1 33.6 24.0 74 3.5 N 7 13 4 7 1011.1 1011.1 0.0
28/08:30pm 29.3 33.5 23.5 71 4.0 NNW 7 13 4 7 1010.7 - 0.0
28/08:00pm 29.2 32.7 22.9 69 4.3 NNW 9 13 5 7 1010.3 - 0.0
28/07:30pm 29.2 32.7 22.2 66 4.7 NNW 7 11 4 6 1009.9 - 0.0
28/07:00pm 29.7 33.2 21.9 63 5.3 NNW 6 7 3 4 1009.5 - 0.0
28/06:30pm 30.5 34.0 21.8 59 5.9 NNW 6 9 3 5 1009.3 - 0.0
28/06:00pm 31.2 34.7 21.9 57 6.3 NNW 6 9 3 5 1009.1 1009.1 0.0
28/05:30pm 31.5 34.7 21.7 56 6.6 N 7 11 4 6 1008.7 - 0.0
28/05:00pm 31.9 35.3 21.7 54 6.9 N 6 11 3 6 1008.4 - 0.0
28/04:30pm 31.9 35.0 21.4 53 7.1 NNE 7 13 4 7 1008.1 - 0.0
28/04:00pm 32.2 35.1 21.7 54 7.1 N 9 13 5 7 1008.1 - 0.0
28/03:30pm 33.1 36.2 22.2 52 7.4 NNE 9 17 5 9 1008.2 - 0.0
28/03:00pm 33.0 35.9 22.4 53 7.3 NNE 11 19 6 10 1008.4 1008.4 0.0
28/02:30pm 32.8 35.7 23.2 57 6.6 NNE 13 20 7 11 1008.8 - 0.0
28/02:00pm 32.9 35.8 23.2 56 6.7 NNE 13 20 7 11 1009.2 - 0.0
28/01:30pm 32.6 35.3 23.5 58 6.3 NNE 15 24 8 13 1009.6 - 0.0
28/01:00pm 32.2 34.8 24.0 62 5.7 NE 17 22 9 12 1010.0 - 0.0
28/12:30pm 31.8 35.0 24.4 65 5.2 ENE 15 24 8 13 1010.4 - 0.0
28/12:00pm 31.3 34.8 24.9 69 4.5 ENE 15 22 8 12 1010.8 1010.8 0.0
28/11:30am 30.4 34.9 25.2 74 3.7 E 11 20 6 11 1011.3 - 0.0
28/11:00am 30.0 34.8 25.7 78 3.0 E 11 17 6 9 1011.6 - 0.0
28/10:30am 29.6 34.6 26.0 81 2.6 ENE 11 17 6 9 1011.8 - 0.0
28/10:00am 29.4 34.7 27.0 87 1.7 ENE 13 17 7 9 1011.7 - 0.0
28/09:30am 28.2 33.7 26.8 92 1.0 E 11 17 6 9 1011.5 - 0.0
28/09:00am 27.6 35.1 27.1 97 0.4 NNE 2 7 1 4 1011.4 1011.4 2.8
28/08:30am 27.2 34.9 26.9 98 0.2 CALM 0 0 0 0 1011.2 - 2.8
28/08:00am 26.8 33.3 26.3 97 0.4 NW 4 9 2 5 1010.9 - 2.8
28/07:30am 26.2 31.8 25.5 96 0.5 NNW 6 9 3 5 1010.6 - 2.8
28/07:00am 26.0 31.8 25.1 95 0.6 NNW 4 7 2 4 1010.3 - 2.8
28/06:30am 26.1 31.0 25.2 95 0.6 NW 9 13 5 7 1009.9 - 2.0
28/06:00am 25.9 30.6 24.9 94 0.7 N 9 15 5 8 1009.6 1009.6 1.8
28/05:30am 26.1 31.4 24.9 93 0.8 NNW 6 9 3 5 1009.3 - 1.8
28/05:00am 26.5 32.6 25.1 92 1.0 WNW 2 7 1 4 1009.0 - 0.4
28/04:30am 26.4 31.3 24.6 90 1.2 W 7 9 4 5 1009.0 - 0.4
28/04:00am 26.3 31.0 24.3 89 1.4 SSE 7 9 4 5 1008.7 - 0.0
28/03:30am 26.1 30.6 24.0 88 1.4 ESE 7 11 4 6 1008.7 - 0.0
28/03:00am 26.1 31.2 24.0 88 1.4 S 4 7 2 4 1008.9 1008.9 0.0
28/02:30am 26.0 31.7 23.7 87 1.6 CALM 0 0 0 0 1009.1 - 0.0
28/02:00am 26.1 31.7 23.6 86 1.7 CALM 0 0 0 0 1009.4 - 0.0
28/01:30am 26.2 31.8 23.5 85 1.8 CALM 0 6 0 3 1009.5 - 0.0
28/01:00am 26.4 30.6 23.5 84 2.0 S 7 9 4 5 1009.7 - 0.0
28/12:30am 26.7 31.1 23.8 84 2.0 S 7 9 4 5 1009.8 - 0.0
28/12:00am 27.0 31.5 23.9 83 2.1 SW 7 9 4 5 1010.0 1010.0 0.0
 
Date/Time
CST
Temp
°C
App
Temp
°C
Dew
Point
Rel
Hum
%
Delta-T
°C
Wind Press
QNH
hPa
Press
MSL
hPa
Rain
since 9 am
mm
Dir
 
Spd
km/h
Gust
km/h
Spd
kts
Gust
kts
27/11:30pm 26.7 30.8 23.0 80 2.5 NE 6 7 3 4 1009.9 - 0.0
27/11:00pm 26.7 31.9 22.8 79 2.6 CALM 0 4 0 2 1009.8 - 0.0
27/10:30pm 26.7 30.6 22.5 78 2.8 NNE 6 7 3 4 1009.6 - 0.0
27/10:00pm 27.0 31.9 22.4 76 3.1 CALM 0 0 0 0 1009.6 - 0.0
27/09:30pm 27.5 32.4 22.4 73 3.4 CALM 0 0 0 0 1009.5 - 0.0
27/09:00pm 27.8 32.8 22.5 73 3.6 CALM 0 0 0 0 1009.3 1009.3 0.0
27/08:30pm 28.2 33.0 22.2 70 4.0 CALM 0 0 0 0 1009.1 - 0.0
27/08:00pm 28.5 32.5 22.0 68 4.4 WSW 4 7 2 4 1008.7 - 0.0
27/07:30pm 29.3 32.9 22.0 64 4.9 N 6 7 3 4 1008.4 - 0.0
27/07:00pm 29.8 33.4 22.0 63 5.3 N 6 9 3 5 1008.2 - 0.0
27/06:30pm 30.7 34.3 22.3 61 5.7 N 7 9 4 5 1008.0 - 0.0
27/06:00pm 31.5 35.2 22.5 59 6.2 N 7 9 4 5 1007.9 1007.9 0.0
27/05:30pm 32.2 35.5 22.6 57 6.6 N 9 15 5 8 1007.7 - 0.0
27/05:00pm 32.6 35.8 23.0 57 6.6 N 11 17 6 9 1007.6 - 0.0
27/04:30pm 33.0 36.2 23.0 55 6.9 NNE 11 17 6 9 1007.5 - 0.0
27/04:00pm 33.3 36.1 23.0 54 7.1 NNE 13 20 7 11 1007.4 - 0.0
27/03:30pm 33.5 37.0 23.5 55 6.9 N 11 17 6 9 1007.5 - 0.0
27/03:00pm 33.4 37.0 23.7 56 6.8 N 11 19 6 10 1007.8 1007.8 0.0
27/02:30pm 33.3 36.4 23.6 56 6.7 NNE 13 19 7 10 1008.2 - 0.0
27/02:00pm 33.0 35.6 23.3 56 6.7 NNE 15 20 8 11 1008.6 - 0.0
27/01:30pm 32.7 35.7 23.3 57 6.5 NNE 13 20 7 11 1009.1 - 0.0
27/01:00pm 33.0 35.8 23.6 57 6.5 NNE 15 22 8 12 1009.5 - 0.0
27/12:30pm 32.8 35.8 24.0 60 6.1 NE 15 26 8 14 1010.0 - 0.0
27/12:00pm 32.7 35.4 24.2 61 6.0 NE 17 26 9 14 1010.4 1010.4 0.0
27/11:30am 32.0 35.1 24.1 63 5.5 NE 15 24 8 13 1010.9 - 0.0
27/11:00am 31.1 34.9 24.0 66 4.9 E 11 19 6 10 1011.4 - 0.0
27/10:30am 31.0 34.9 24.9 70 4.3 ENE 13 19 7 10 1011.7 - 0.0
27/10:00am 30.2 33.3 24.8 73 3.8 E 17 24 9 13 1011.8 - 0.0
27/09:30am 29.6 33.4 25.3 77 3.0 E 15 22 8 12 1011.7 - 0.0
27/09:00am 28.9 34.0 26.1 85 2.0 ESE 11 17 6 9 1011.6 1011.6 0.0
27/08:30am 27.9 34.0 26.5 92 1.0 ESE 7 13 4 7 1011.5 - 0.0
27/08:00am 26.5 32.1 25.5 94 0.7 S 6 7 3 4 1011.3 - 0.0
27/07:30am 26.3 31.7 25.1 93 0.8 S 6 7 3 4 1011.2 - 0.0
27/07:00am 26.1 31.9 24.5 91 1.1 SE 2 7 1 4 1010.8 - 0.0
27/06:30am 26.2 30.7 24.6 91 1.1 SE 9 11 5 6 1010.4 - 0.0
27/06:00am 26.4 30.9 24.6 90 1.2 S 9 9 5 5 1010.4 1010.4 0.0
27/05:30am 26.7 32.2 24.7 89 1.4 SSW 4 6 2 3 1010.1 - 0.0
27/05:00am 26.8 31.3 24.6 88 1.5 WSW 9 11 5 6 1010.0 - 0.0
27/04:30am 27.0 32.5 24.6 87 1.7 W 4 7 2 4 1009.6 - 0.0
27/04:00am 26.9 30.4 24.2 85 1.9 S 13 15 7 8 1009.7 - 0.0
27/03:30am 27.5 31.7 24.1 82 2.3 SSW 9 13 5 7 1009.7 - 0.0
27/03:00am 28.3 33.1 24.5 80 2.6 S 7 11 4 6 1010.1 1010.1 0.0
27/02:30am 29.3 34.5 25.7 81 2.5 ENE 9 13 5 7 1010.3 - 0.0
27/02:00am 29.1 33.7 25.3 80 2.7 NE 11 15 6 8 1010.4 - 0.0
27/01:30am 29.0 33.4 25.0 79 2.8 NE 11 15 6 8 1010.5 - 0.0
27/01:00am 28.9 33.0 24.5 77 3.1 NE 11 15 6 8 1010.6 - 0.0
27/12:30am 29.1 32.7 24.4 76 3.3 NE 13 17 7 9 1010.9 - 0.0
27/12:00am 29.2 33.6 24.5 76 3.3 NNE 9 11 5 6 1010.8 1010.8 0.0
 
Date/Time
CST
Temp
°C
App
Temp
°C
Dew
Point
Rel
Hum
%
Delta-T
°C
Wind Press
QNH
hPa
Press
MSL
hPa
Rain
since 9 am
mm
Dir
 
Spd
km/h
Gust
km/h
Spd
kts
Gust
kts
26/11:30pm 29.5 34.0 24.6 75 3.4 NNE 9 13 5 7 1010.7 - 0.0
26/11:00pm 29.7 34.2 24.6 74 3.6 NNE 9 13 5 7 1010.7 - 0.0
26/10:30pm 29.8 34.2 24.4 73 3.8 N 9 13 5 7 1010.7 - 0.0
26/10:00pm 29.7 33.9 24.1 72 3.9 N 9 15 5 8 1010.6 - 0.0
26/09:30pm 29.8 33.9 24.0 71 4.0 N 9 13 5 7 1010.6 - 0.0
26/09:00pm 30.1 34.2 24.0 70 4.2 N 9 13 5 7 1010.4 1010.4 0.0
26/08:30pm 30.3 34.3 23.7 68 4.6 N 9 15 5 8 1010.2 - 0.0
26/08:00pm 30.4 34.1 23.3 66 4.9 N 9 17 5 9 1009.7 - 0.0
26/07:30pm 30.2 33.8 22.4 63 5.3 N 7 15 4 8 1009.4 - 0.0
26/07:00pm 30.5 34.0 22.1 61 5.7 N 7 11 4 6 1009.0 - 0.0
26/06:30pm 31.2 34.5 21.9 57 6.3 N 7 13 4 7 1008.8 - 0.0
26/06:00pm 32.1 35.4 22.5 57 6.6 N 9 15 5 8 1008.6 1008.6 0.0
26/05:30pm 32.7 35.6 22.5 55 7.0 N 11 17 6 9 1008.5 - 0.0
26/05:00pm 33.3 36.2 22.4 52 7.5 N 11 17 6 9 1008.3 - 0.0
26/04:30pm 33.8 37.3 22.9 53 7.5 N 9 15 5 8 1008.1 - 0.0
26/04:00pm 34.1 37.6 22.8 51 7.8 N 9 17 5 9 1007.9 - 0.0
26/03:30pm 33.9 35.9 22.3 50 7.9 NNE 15 24 8 13 1008.0 - 0.0
26/03:00pm 34.3 36.7 23.0 51 7.8 NNE 15 26 8 14 1008.1 1008.1 0.0
26/02:30pm 34.1 35.7 22.8 51 7.8 NNE 19 26 10 14 1008.4 - 0.0
26/02:00pm 33.7 35.3 22.8 53 7.5 NNE 19 28 10 15 1008.8 - 0.0

Other Formats:

Comma delimited format used in spreadsheet applications
http://www.bom.gov.au/fwo/IDD60801/IDD60801.94127.axf

JavaScript Object Notation format (JSON) in row-major order
http://www.bom.gov.au/fwo/IDD60801/IDD60801.94127.json